createdAt,value
2019-04-07T00:00:25.792Z,6.14
2019-04-07T00:02:57.983Z,6.13
2019-04-07T00:05:29.768Z,6.07
2019-04-07T00:08:01.817Z,6.08
2019-04-07T00:10:34.307Z,6.04
2019-04-07T00:13:05.331Z,6.00
2019-04-07T00:15:36.893Z,5.95
2019-04-07T00:18:08.836Z,5.89
2019-04-07T00:20:40.812Z,5.89
2019-04-07T00:23:13.003Z,5.86
2019-04-07T00:25:45.095Z,5.82
2019-04-07T00:28:17.219Z,5.75
2019-04-07T00:30:48.908Z,5.68
2019-04-07T00:33:20.845Z,5.63
2019-04-07T00:35:52.643Z,5.58
2019-04-07T00:38:24.910Z,5.53
2019-04-07T00:40:56.746Z,5.48
2019-04-07T00:43:29.215Z,5.52
2019-04-07T00:46:01.333Z,5.53
2019-04-07T00:48:33.348Z,5.54
2019-04-07T00:51:05.168Z,5.54
2019-04-07T00:53:37.533Z,5.53
2019-04-07T00:56:09.432Z,5.52
2019-04-07T00:58:42.289Z,5.46
2019-04-07T01:01:16.384Z,5.44
2019-04-07T01:03:49.428Z,5.45
2019-04-07T01:06:21.096Z,5.33
2019-04-07T01:08:53.663Z,5.27
2019-04-07T01:11:24.793Z,5.20
2019-04-07T01:13:56.228Z,5.15
2019-04-07T01:16:28.504Z,5.12
2019-04-07T01:19:00.377Z,5.10
2019-04-07T01:21:33.035Z,5.11
2019-04-07T01:24:05.610Z,5.09
2019-04-07T01:26:37.453Z,5.16
2019-04-07T01:29:09.276Z,5.14
2019-04-07T01:31:41.591Z,5.09
2019-04-07T01:34:13.660Z,5.06
2019-04-07T01:36:46.372Z,5.03
2019-04-07T01:39:18.360Z,4.98
2019-04-07T01:41:51.856Z,5.01
2019-04-07T01:44:25.573Z,4.98
2019-04-07T01:47:02.378Z,4.94
2019-04-07T01:49:41.607Z,4.87
2019-04-07T01:52:29.995Z,4.84
2019-04-07T01:55:03.767Z,4.87
2019-04-07T01:57:39.944Z,4.89
2019-04-07T02:00:16.236Z,4.89
2019-04-07T02:02:52.616Z,4.93
2019-04-07T02:05:26.985Z,4.89
2019-04-07T02:08:09.420Z,4.84
2019-04-07T02:10:46.054Z,4.82
2019-04-07T02:13:22.831Z,4.84
2019-04-07T02:15:59.236Z,4.87
2019-04-07T02:18:50.801Z,4.83
2019-04-07T02:21:27.406Z,4.81
2019-04-07T02:24:04.844Z,4.80
2019-04-07T02:26:44.421Z,4.76
2019-04-07T02:29:35.878Z,4.78
2019-04-07T02:32:18.113Z,4.75
2019-04-07T02:35:00.067Z,4.71
2019-04-07T02:37:36.702Z,4.63
2019-04-07T02:40:10.490Z,4.56
2019-04-07T02:42:46.231Z,4.59
2019-04-07T02:45:25.145Z,4.58
2019-04-07T02:48:05.124Z,4.57
2019-04-07T02:50:44.123Z,4.55
2019-04-07T02:53:21.688Z,4.49
2019-04-07T02:56:07.982Z,4.49
2019-04-07T02:58:47.783Z,4.45
2019-04-07T03:01:24.096Z,4.46
2019-04-07T03:04:03.591Z,4.41
2019-04-07T03:06:44.085Z,4.39
2019-04-07T03:09:11.836Z,4.32
2019-04-07T03:11:47.898Z,4.33
2019-04-07T03:14:21.655Z,4.34
2019-04-07T03:16:55.743Z,4.34
2019-04-07T03:19:30.333Z,4.36
2019-04-07T03:22:03.368Z,4.43
2019-04-07T03:24:53.190Z,4.45
2019-04-07T03:27:30.247Z,4.51
2019-04-07T03:30:21.845Z,4.56
2019-04-07T03:33:06.026Z,4.67
2019-04-07T03:35:40.999Z,5.15
2019-04-07T03:38:27.295Z,5.59
2019-04-07T03:41:03.680Z,6.16
2019-04-07T03:43:46.400Z,6.73
2019-04-07T03:46:20.325Z,7.32
2019-04-07T03:49:05.930Z,8.25
2019-04-07T03:51:51.555Z,8.57
2019-04-07T03:54:37.822Z,9.29
2019-04-07T03:57:11.361Z,9.78
2019-04-07T04:00:02.078Z,10.61
2019-04-07T04:02:44.530Z,11.13
2019-04-07T04:05:34.082Z,11.32
2019-04-07T04:08:07.665Z,12.43
2019-04-07T04:10:43.585Z,13.39
2019-04-07T04:13:24.304Z,14.29
2019-04-07T04:16:01.066Z,14.55
2019-04-07T04:18:32.742Z,14.24
2019-04-07T04:21:07.029Z,15.16
2019-04-07T04:24:06.884Z,15.37
2019-04-07T04:26:46.236Z,13.47
2019-04-07T04:29:18.948Z,11.99
2019-04-07T04:31:51.042Z,10.93
2019-04-07T04:34:23.667Z,11.22
2019-04-07T04:36:56.299Z,10.32
2019-04-07T04:39:29.338Z,10.48
2019-04-07T04:42:02.087Z,10.55
2019-04-07T04:44:33.976Z,12.57
2019-04-07T04:47:06.064Z,12.15
2019-04-07T04:49:38.431Z,11.71
2019-04-07T04:52:09.249Z,11.07
2019-04-07T04:54:40.976Z,10.96
2019-04-07T04:57:13.200Z,10.95
2019-04-07T04:59:45.880Z,10.68
2019-04-07T05:02:17.669Z,10.90
2019-04-07T05:04:49.843Z,11.26
2019-04-07T05:07:22.202Z,11.91
2019-04-07T05:09:56.639Z,13.01
2019-04-07T05:12:28.662Z,13.43
2019-04-07T05:15:00.660Z,14.39
2019-04-07T05:17:32.565Z,14.39
2019-04-07T05:20:06.062Z,14.45
2019-04-07T05:22:38.053Z,14.40
2019-04-07T05:25:10.463Z,14.48
2019-04-07T05:27:43.226Z,14.35
2019-04-07T05:30:15.651Z,13.76
2019-04-07T05:32:47.847Z,13.70
2019-04-07T05:35:19.606Z,14.02
2019-04-07T05:38:01.228Z,14.80
2019-04-07T05:40:25.455Z,16.75
2019-04-07T05:42:57.517Z,18.35
2019-04-07T05:45:29.229Z,19.70
2019-04-07T05:48:01.153Z,18.93
2019-04-07T05:50:33.461Z,19.03
2019-04-07T05:53:09.500Z,20.14
2019-04-07T05:55:39.303Z,21.79
2019-04-07T05:58:10.944Z,22.83
2019-04-07T06:00:45.897Z,22.18
2019-04-07T06:03:17.670Z,20.95
2019-04-07T06:05:51.124Z,20.05
2019-04-07T06:08:32.155Z,21.09
2019-04-07T06:11:02.048Z,22.65
2019-04-07T06:13:32.828Z,23.62
2019-04-07T06:16:05.347Z,23.27
2019-04-07T06:18:36.878Z,21.26
2019-04-07T06:21:09.318Z,21.30
2019-04-07T06:23:40.787Z,20.75
2019-04-07T06:26:13.066Z,23.19
2019-04-07T06:28:48.473Z,24.45
2019-04-07T06:31:18.387Z,23.20
2019-04-07T06:33:51.289Z,23.20
2019-04-07T06:36:26.868Z,25.09
2019-04-07T06:38:59.366Z,25.59
2019-04-07T06:41:33.060Z,26.80
2019-04-07T06:44:11.971Z,29.07
2019-04-07T06:46:49.180Z,29.47
2019-04-07T06:49:38.086Z,31.80
2019-04-07T06:52:14.710Z,33.10
2019-04-07T06:55:00.197Z,33.30
2019-04-07T06:57:49.980Z,32.01
2019-04-07T07:00:26.255Z,31.28
2019-04-07T07:03:08.467Z,32.75
2019-04-07T07:05:46.161Z,29.89
2019-04-07T07:08:21.908Z,29.88
2019-04-07T07:10:57.550Z,29.43
2019-04-07T07:13:34.656Z,30.02
2019-04-07T07:16:10.121Z,28.30
2019-04-07T07:18:58.164Z,27.73
2019-04-07T07:21:49.020Z,29.55
2019-04-07T07:24:25.034Z,29.28
2019-04-07T07:26:57.054Z,28.96
2019-04-07T07:29:27.872Z,31.18
2019-04-07T07:32:03.433Z,31.89
2019-04-07T07:34:33.922Z,29.32
2019-04-07T07:37:06.080Z,28.35
2019-04-07T07:39:41.936Z,26.42
2019-04-07T07:42:12.151Z,24.35
2019-04-07T07:44:44.357Z,24.55
2019-04-07T07:47:19.736Z,24.90
2019-04-07T07:49:49.764Z,24.43
2019-04-07T07:52:21.993Z,24.52
2019-04-07T07:54:55.121Z,23.12
2019-04-07T07:57:27.291Z,21.69
2019-04-07T08:00:00.279Z,21.46
2019-04-07T08:02:32.148Z,21.17
2019-04-07T08:05:04.242Z,20.56
2019-04-07T08:07:35.991Z,20.58
2019-04-07T08:10:08.564Z,20.58
2019-04-07T08:12:42.171Z,20.09
2019-04-07T08:15:14.180Z,20.33
2019-04-07T08:17:46.347Z,20.33
2019-04-07T08:20:18.532Z,19.72
2019-04-07T08:22:50.498Z,19.72
2019-04-07T08:25:23.695Z,19.68
2019-04-07T08:27:56.493Z,19.90
2019-04-07T08:30:28.453Z,20.71
2019-04-07T08:33:01.297Z,20.76
2019-04-07T08:35:37.772Z,19.93
2019-04-07T08:38:07.107Z,20.12
2019-04-07T08:40:39.155Z,20.06
2019-04-07T08:43:11.486Z,19.92
2019-04-07T08:45:43.205Z,19.05
2019-04-07T08:48:18.239Z,19.10
2019-04-07T08:50:48.627Z,19.25
2019-04-07T08:53:20.441Z,19.21
2019-04-07T08:55:54.742Z,19.87
2019-04-07T08:58:29.760Z,19.92
2019-04-07T09:00:59.582Z,19.78
2019-04-07T09:03:31.481Z,19.53
2019-04-07T09:06:04.775Z,19.44
2019-04-07T09:08:39.007Z,19.32
2019-04-07T09:11:13.143Z,19.30
2019-04-07T09:13:46.561Z,19.49
2019-04-07T09:16:32.138Z,19.14
2019-04-07T09:19:14.955Z,18.70
2019-04-07T09:21:50.689Z,18.23
2019-04-07T09:24:33.427Z,18.25
2019-04-07T09:27:17.167Z,17.90
2019-04-07T09:29:47.825Z,18.14
2019-04-07T09:32:24.336Z,17.81
2019-04-07T09:35:13.502Z,17.91
2019-04-07T09:37:47.087Z,18.11
2019-04-07T09:40:37.201Z,18.04
2019-04-07T09:43:19.950Z,18.34
2019-04-07T09:46:02.847Z,18.20
2019-04-07T09:48:40.554Z,18.02
2019-04-07T09:51:29.834Z,17.83
2019-04-07T09:54:22.536Z,17.93
2019-04-07T09:57:10.819Z,18.02
2019-04-07T09:59:50.889Z,18.42
2019-04-07T10:02:31.811Z,18.14
2019-04-07T10:05:11.285Z,18.06
2019-04-07T10:07:54.347Z,18.11
2019-04-07T10:10:33.308Z,18.03
2019-04-07T10:13:24.600Z,18.13
2019-04-07T10:16:11.011Z,18.28
2019-04-07T10:18:48.119Z,18.39
2019-04-07T10:21:24.215Z,18.41
2019-04-07T10:24:03.246Z,18.32
2019-04-07T10:26:43.002Z,18.22
2019-04-07T10:29:25.425Z,18.34
2019-04-07T10:32:04.603Z,18.46
2019-04-07T10:34:54.471Z,18.34
2019-04-07T10:37:44.558Z,18.25
2019-04-07T10:40:27.529Z,18.33
2019-04-07T10:43:10.602Z,18.36
2019-04-07T10:45:46.787Z,18.47
2019-04-07T10:48:26.156Z,18.58
2019-04-07T10:51:18.462Z,18.65
2019-04-07T10:54:00.450Z,18.52
2019-04-07T10:56:34.455Z,18.47
2019-04-07T10:59:17.515Z,18.48
2019-04-07T11:01:56.716Z,18.47
2019-04-07T11:04:30.615Z,18.44
2019-04-07T11:07:04.545Z,18.39
2019-04-07T11:09:55.276Z,18.49
2019-04-07T11:12:45.767Z,18.68
2019-04-07T11:15:28.030Z,18.76
2019-04-07T11:18:16.464Z,18.61
2019-04-07T11:20:49.759Z,18.55
2019-04-07T11:23:29.566Z,18.65
2019-04-07T11:26:19.089Z,18.58
2019-04-07T11:28:55.602Z,18.69
2019-04-07T11:31:38.540Z,18.77
2019-04-07T11:34:20.669Z,18.74
2019-04-07T11:36:54.481Z,18.90
2019-04-07T11:39:37.405Z,19.04
2019-04-07T11:42:26.259Z,19.01
2019-04-07T11:45:16.024Z,19.07
2019-04-07T11:47:52.545Z,18.83
2019-04-07T11:50:28.584Z,18.62
2019-04-07T11:53:17.624Z,18.69
2019-04-07T11:55:51.109Z,19.01
2019-04-07T11:58:40.888Z,19.05
2019-04-07T12:01:29.327Z,19.13
2019-04-07T12:04:02.567Z,18.98
2019-04-07T12:06:46.575Z,18.99
2019-04-07T12:09:33.754Z,18.95
2019-04-07T12:12:07.986Z,19.06
2019-04-07T12:14:50.085Z,19.15
2019-04-07T12:17:25.595Z,19.26
2019-04-07T12:20:15.169Z,19.10
2019-04-07T12:22:49.390Z,19.09
2019-04-07T12:25:38.508Z,18.98
2019-04-07T12:28:14.603Z,18.98
2019-04-07T12:30:59.946Z,18.99
2019-04-07T12:33:48.707Z,18.95
2019-04-07T12:36:32.178Z,18.99
2019-04-07T12:39:16.200Z,18.88
2019-04-07T12:41:51.382Z,18.78
2019-04-07T12:44:31.813Z,18.68
2019-04-07T12:47:08.066Z,18.65
2019-04-07T12:49:45.736Z,18.65
2019-04-07T12:52:35.521Z,18.63
2019-04-07T12:55:11.895Z,18.60
2019-04-07T12:57:44.681Z,18.81
2019-04-07T13:00:52.392Z,19.07
2019-04-07T13:03:21.137Z,19.19
2019-04-07T13:06:00.674Z,19.09
2019-04-07T13:08:36.758Z,19.09
2019-04-07T13:11:13.294Z,18.75
2019-04-07T13:14:01.642Z,18.72
2019-04-07T13:16:33.638Z,18.47
2019-04-07T13:19:15.789Z,18.51
2019-04-07T13:22:05.633Z,18.40
2019-04-07T13:24:39.300Z,18.30
2019-04-07T13:27:23.247Z,18.34
2019-04-07T13:30:05.873Z,18.28
2019-04-07T13:32:55.159Z,18.26
2019-04-07T13:35:35.162Z,18.28
2019-04-07T13:38:09.397Z,18.24
2019-04-07T13:40:45.727Z,18.31
2019-04-07T13:43:18.773Z,18.43
2019-04-07T13:46:02.451Z,18.36
2019-04-07T13:48:49.652Z,18.32
2019-04-07T13:51:29.077Z,18.36
2019-04-07T13:54:03.268Z,18.33
2019-04-07T13:56:39.711Z,18.38
2019-04-07T13:59:28.416Z,18.42
2019-04-07T14:02:05.324Z,18.55
2019-04-07T14:04:39.222Z,18.65
2019-04-07T14:07:19.771Z,18.62
2019-04-07T14:09:53.907Z,18.69
2019-04-07T14:12:34.575Z,18.63
2019-04-07T14:15:11.448Z,18.62
2019-04-07T14:17:56.896Z,18.53
2019-04-07T14:20:33.014Z,18.58
2019-04-07T14:23:22.523Z,18.62
2019-04-07T14:25:58.776Z,18.72
2019-04-07T14:28:35.710Z,18.89
2019-04-07T14:31:09.456Z,18.80
2019-04-07T14:33:49.162Z,18.80
2019-04-07T14:36:31.566Z,18.73
2019-04-07T14:39:10.685Z,18.58
2019-04-07T14:41:47.327Z,18.38
2019-04-07T14:44:21.431Z,18.32
2019-04-07T14:46:57.665Z,18.21
2019-04-07T14:49:33.868Z,18.02
2019-04-07T14:52:24.303Z,18.17
2019-04-07T14:55:00.012Z,18.14
2019-04-07T14:57:43.678Z,18.08
2019-04-07T15:00:20.448Z,18.03
2019-04-07T15:02:52.946Z,17.97
2019-04-07T15:05:32.655Z,17.93
2019-04-07T15:08:17.293Z,17.85
2019-04-07T15:10:51.640Z,17.85
2019-04-07T15:13:27.936Z,17.78
2019-04-07T15:15:58.552Z,17.71
2019-04-07T15:18:30.190Z,17.68
2019-04-07T15:21:02.346Z,17.63
2019-04-07T15:23:34.419Z,17.52
2019-04-07T15:26:06.473Z,17.48
2019-04-07T15:28:38.429Z,17.47
2019-04-07T15:31:10.254Z,17.38
2019-04-07T15:33:42.408Z,17.33
2019-04-07T15:36:17.537Z,17.30
2019-04-07T15:38:47.801Z,17.20
2019-04-07T15:41:22.199Z,17.14
2019-04-07T15:43:55.219Z,17.09
2019-04-07T15:46:27.327Z,17.04
2019-04-07T15:48:59.435Z,16.95
2019-04-07T15:51:34.388Z,16.88
2019-04-07T15:54:06.219Z,16.83
2019-04-07T15:56:38.314Z,16.78
2019-04-07T15:59:10.076Z,16.72
2019-04-07T16:01:41.900Z,16.62
2019-04-07T16:04:13.976Z,16.54
2019-04-07T16:06:48.116Z,16.43
2019-04-07T16:09:33.375Z,16.30
2019-04-07T16:11:53.328Z,16.22
2019-04-07T16:14:25.262Z,16.18
2019-04-07T16:16:59.616Z,16.08
2019-04-07T16:19:38.204Z,15.96
2019-04-07T16:22:04.516Z,15.96
2019-04-07T16:24:36.148Z,15.90
2019-04-07T16:27:08.952Z,15.78
2019-04-07T16:29:41.303Z,15.56
2019-04-07T16:32:13.536Z,15.44
2019-04-07T16:34:46.259Z,15.36
2019-04-07T16:37:18.188Z,15.39
2019-04-07T16:39:50.239Z,15.38
2019-04-07T16:42:22.038Z,15.38
2019-04-07T16:44:54.848Z,15.32
2019-04-07T16:47:32.768Z,15.25
2019-04-07T16:50:00.010Z,15.19
2019-04-07T16:52:33.979Z,15.12
2019-04-07T16:55:09.258Z,14.99
2019-04-07T16:57:41.133Z,14.89
2019-04-07T17:00:16.391Z,14.73
2019-04-07T17:02:48.218Z,14.84
2019-04-07T17:05:22.001Z,14.81
2019-04-07T17:07:56.547Z,14.83
2019-04-07T17:10:30.949Z,14.85
2019-04-07T17:13:05.327Z,14.83
2019-04-07T17:15:38.199Z,14.81
2019-04-07T17:18:10.627Z,14.83
2019-04-07T17:20:42.380Z,14.88
2019-04-07T17:23:14.256Z,14.78
2019-04-07T17:25:45.990Z,14.74
2019-04-07T17:28:18.365Z,14.69
2019-04-07T17:30:49.638Z,14.64
2019-04-07T17:33:23.219Z,14.66
2019-04-07T17:35:55.384Z,14.67
2019-04-07T17:38:29.144Z,14.66
2019-04-07T17:41:01.017Z,14.71
2019-04-07T17:43:52.819Z,14.67
2019-04-07T17:46:38.344Z,14.57
2019-04-07T17:49:14.726Z,14.55
2019-04-07T17:51:54.044Z,14.51
2019-04-07T17:54:34.435Z,14.44
2019-04-07T17:57:16.881Z,14.39
2019-04-07T18:00:05.864Z,14.32
2019-04-07T18:02:54.016Z,14.26
2019-04-07T18:05:36.595Z,14.12
2019-04-07T18:08:16.463Z,14.03
2019-04-07T18:11:05.051Z,13.99
2019-04-07T18:13:57.672Z,13.92
2019-04-07T18:16:46.448Z,13.87
2019-04-07T18:19:19.788Z,13.81
2019-04-07T18:21:59.749Z,13.84
2019-04-07T18:24:48.741Z,13.81
2019-04-07T18:27:23.231Z,13.79
2019-04-07T18:30:03.437Z,13.74
2019-04-07T18:32:51.758Z,13.73
2019-04-07T18:35:40.919Z,13.73
2019-04-07T18:38:29.778Z,13.73
2019-04-07T18:41:13.111Z,13.78
2019-04-07T18:44:04.636Z,13.85
2019-04-07T18:46:34.606Z,13.80
2019-04-07T18:49:08.301Z,13.83
2019-04-07T18:51:49.008Z,13.83
2019-04-07T18:54:38.834Z,13.77
2019-04-07T18:57:12.749Z,13.74
2019-04-07T19:00:04.286Z,13.65
2019-04-07T19:02:38.355Z,13.53
2019-04-07T19:05:15.279Z,13.52
2019-04-07T19:07:51.760Z,13.47
2019-04-07T19:10:28.017Z,13.38
2019-04-07T19:13:12.768Z,13.35
2019-04-07T19:15:51.935Z,13.31
2019-04-07T19:18:45.262Z,13.25
2019-04-07T19:21:20.434Z,13.23
2019-04-07T19:23:59.130Z,13.16
2019-04-07T19:26:41.080Z,13.17
2019-04-07T19:29:19.597Z,13.19
2019-04-07T19:31:52.522Z,13.16
2019-04-07T19:34:32.788Z,13.13
2019-04-07T19:37:20.157Z,13.07
2019-04-07T19:40:08.579Z,12.87
2019-04-07T19:42:49.546Z,13.04
2019-04-07T19:45:25.412Z,12.97
2019-04-07T19:48:01.930Z,12.85
2019-04-07T19:51:03.193Z,12.80
2019-04-07T19:53:43.261Z,12.79
2019-04-07T19:56:23.793Z,12.71
2019-04-07T19:58:59.911Z,12.61
2019-04-07T20:01:33.649Z,12.55
2019-04-07T20:04:25.906Z,12.47
2019-04-07T20:07:17.933Z,12.39
2019-04-07T20:10:06.701Z,12.31
2019-04-07T20:12:44.046Z,12.22
2019-04-07T20:15:31.013Z,12.21
2019-04-07T20:18:05.548Z,12.24
2019-04-07T20:20:48.521Z,12.19
2019-04-07T20:23:22.917Z,12.21
2019-04-07T20:25:57.370Z,12.13
2019-04-07T20:28:32.975Z,12.12
2019-04-07T20:31:12.684Z,12.06
2019-04-07T20:33:49.086Z,11.97
2019-04-07T20:36:24.622Z,11.97
2019-04-07T20:39:03.966Z,11.92
2019-04-07T20:41:56.765Z,11.93
2019-04-07T20:44:35.233Z,11.96
2019-04-07T20:47:26.444Z,11.99
2019-04-07T20:50:11.911Z,12.00
2019-04-07T20:53:10.126Z,11.93
2019-04-07T20:55:50.733Z,11.95
2019-04-07T20:58:43.669Z,11.92
2019-04-07T21:01:10.045Z,11.91
2019-04-07T21:03:51.632Z,11.97
2019-04-07T21:06:42.627Z,11.88
2019-04-07T21:09:34.554Z,11.89
2019-04-07T21:12:12.774Z,11.85
2019-04-07T21:15:16.182Z,11.91
2019-04-07T21:17:38.597Z,12.06
2019-04-07T21:20:13.130Z,12.03
2019-04-07T21:22:58.415Z,11.95
2019-04-07T21:25:46.995Z,11.83
2019-04-07T21:28:29.403Z,11.74
2019-04-07T21:31:21.438Z,11.63
2019-04-07T21:33:55.801Z,11.49
2019-04-07T21:36:32.819Z,11.35
2019-04-07T21:39:21.729Z,11.49
2019-04-07T21:41:54.885Z,11.60
2019-04-07T21:44:29.305Z,11.63
2019-04-07T21:47:19.128Z,11.58
2019-04-07T21:50:05.447Z,11.69
2019-04-07T21:52:52.935Z,11.40
2019-04-07T21:55:41.955Z,11.41
2019-04-07T21:58:31.551Z,11.38
2019-04-07T22:01:21.057Z,11.35
2019-04-07T22:03:54.630Z,11.32
2019-04-07T22:06:29.802Z,11.34
2019-04-07T22:09:03.202Z,11.39
2019-04-07T22:11:36.747Z,11.34
2019-04-07T22:14:08.617Z,11.16
2019-04-07T22:16:41.004Z,11.07
2019-04-07T22:19:14.926Z,10.91
2019-04-07T22:21:48.066Z,10.71
2019-04-07T22:24:20.745Z,10.70
2019-04-07T22:26:53.326Z,10.35
2019-04-07T22:29:25.423Z,10.70
2019-04-07T22:31:58.581Z,10.57
2019-04-07T22:34:32.684Z,10.39
2019-04-07T22:37:03.592Z,10.15
2019-04-07T22:39:35.733Z,9.92
2019-04-07T22:42:08.495Z,9.64
2019-04-07T22:44:40.363Z,9.37
2019-04-07T22:47:14.430Z,9.16
2019-04-07T22:49:46.106Z,9.05
2019-04-07T22:52:18.952Z,9.09
2019-04-07T22:54:50.668Z,9.14
2019-04-07T22:57:22.627Z,9.11
2019-04-07T22:59:54.585Z,9.08
2019-04-07T23:02:26.353Z,9.10
2019-04-07T23:04:58.761Z,9.03
2019-04-07T23:07:30.622Z,8.92
2019-04-07T23:10:02.781Z,8.81
2019-04-07T23:12:36.085Z,8.77
2019-04-07T23:15:07.991Z,8.77
2019-04-07T23:17:40.304Z,8.93
2019-04-07T23:20:13.072Z,9.01
2019-04-07T23:22:45.179Z,8.99
2019-04-07T23:25:17.581Z,9.03
2019-04-07T23:27:50.020Z,9.12
2019-04-07T23:30:23.656Z,9.16
2019-04-07T23:32:55.724Z,9.18
2019-04-07T23:35:27.387Z,9.02
2019-04-07T23:38:00.373Z,9.25
2019-04-07T23:40:32.243Z,9.20
2019-04-07T23:43:04.779Z,9.22
2019-04-07T23:45:36.364Z,9.21
2019-04-07T23:48:08.420Z,9.15
2019-04-07T23:50:41.158Z,9.23
2019-04-07T23:53:49.140Z,9.33
2019-04-07T23:56:20.766Z,9.39
2019-04-07T23:58:52.536Z,9.57
